Time;durP1;ratioP1;P1;durP2;ratioP2;P2;SDS_P1;SDS_P2;PMS_P1;PMS_P2;Temp;Humidity;BMP_temperature;BMP_pressure;BME280_temperature;BME280_humidity;BME280_pressure;Samples;Min_cycle;Max_cycle;Signal;HPM_P1;HPM_P2
2020/12/23 00:01:19;;;;;;;0.47;0.40;;;16.70;51.10;;;;;;6276909;22;20003;-78
2020/12/23 00:03:46;;;;;;;0.60;0.57;;;17.00;49.80;;;;;;6274738;22;20011;-78
2020/12/23 00:06:13;;;;;;;1.80;0.60;;;16.90;50.00;;;;;;6278051;22;20421;-79
2020/12/23 00:08:40;;;;;;;0.50;0.40;;;16.40;50.30;;;;;;6277905;22;19996;-78
2020/12/23 00:11:07;;;;;;;0.65;0.43;;;16.10;51.40;;;;;;6277625;22;19999;-79
2020/12/23 00:13:37;;;;;;;1.15;0.60;;;15.70;51.60;;;;;;6283110;22;20007;-81
2020/12/23 00:16:07;;;;;;;1.45;0.50;;;15.30;52.40;;;;;;6284726;22;19992;-81
2020/12/23 00:18:34;;;;;;;0.70;0.50;;;14.40;53.20;;;;;;6278124;22;20000;-75
2020/12/23 00:21:00;;;;;;;2.78;0.60;;;14.10;54.40;;;;;;6275616;22;20010;-80
2020/12/23 00:23:27;;;;;;;0.82;0.43;;;13.40;54.30;;;;;;6277448;22;20008;-81
2020/12/23 00:25:54;;;;;;;1.23;0.40;;;13.30;55.10;;;;;;6277207;22;20591;-80
2020/12/23 00:28:21;;;;;;;0.60;0.40;;;12.90;55.70;;;;;;6276406;22;20000;-80
2020/12/23 00:30:48;;;;;;;0.40;0.40;;;12.70;56.10;;;;;;6276435;22;19996;-77
2020/12/23 00:33:15;;;;;;;3.08;0.50;;;12.50;56.10;;;;;;6280565;22;20000;-78
2020/12/23 00:35:42;;;;;;;6.88;0.50;;;12.20;56.90;;;;;;6280577;22;19992;-79
2020/12/23 00:38:09;;;;;;;0.43;0.40;;;12.10;57.30;;;;;;6277311;22;20003;-79
2020/12/23 00:40:36;;;;;;;1.38;0.50;;;11.80;58.00;;;;;;6278241;22;20002;-77
2020/12/23 00:43:03;;;;;;;0.63;0.32;;;11.70;58.60;;;;;;6279025;22;20069;-80
2020/12/23 00:45:30;;;;;;;2.45;0.40;;;11.70;58.80;;;;;;6276787;22;20007;-79
2020/12/23 00:47:57;;;;;;;1.35;0.40;;;11.70;58.50;;;;;;6275939;22;20011;-80
2020/12/23 00:50:24;;;;;;;2.72;0.90;;;11.60;59.30;;;;;;6276920;22;19995;-79
2020/12/23 00:52:51;;;;;;;0.75;0.30;;;11.50;59.60;;;;;;6278921;22;19999;-79
2020/12/23 00:55:18;;;;;;;1.00;0.50;;;11.50;60.10;;;;;;6277370;22;19992;-80
2020/12/23 00:57:44;;;;;;;7.80;0.80;;;11.40;61.50;;;;;;6276777;22;20565;-79
2020/12/23 01:00:12;;;;;;;0.43;0.30;;;11.30;61.20;;;;;;6276426;22;20444;-79
2020/12/23 01:02:38;;;;;;;2.03;0.30;;;11.20;61.40;;;;;;6276073;22;19996;-79
2020/12/23 01:05:05;;;;;;;0.47;0.40;;;11.10;62.60;;;;;;6276582;22;20007;-78
2020/12/23 01:07:32;;;;;;;1.15;0.50;;;11.00;62.80;;;;;;6280490;22;19998;-79
2020/12/23 01:09:59;;;;;;;0.65;0.35;;;10.80;63.00;;;;;;6278480;22;20000;-79
2020/12/23 01:12:26;;;;;;;2.67;0.50;;;10.70;63.50;;;;;;6276725;22;20004;-79
2020/12/23 01:14:53;;;;;;;0.85;0.55;;;10.60;64.10;;;;;;6276508;22;20003;-80
2020/12/23 01:17:20;;;;;;;0.73;0.40;;;10.60;62.60;;;;;;6275679;22;20007;-80
2020/12/23 01:19:47;;;;;;;1.25;0.50;;;10.50;62.40;;;;;;6275607;22;19992;-79
2020/12/23 01:22:13;;;;;;;0.35;0.20;;;10.40;60.40;;;;;;6274495;22;20014;-79
2020/12/23 01:24:40;;;;;;;2.47;0.30;;;10.30;61.20;;;;;;6277192;22;20004;-78
2020/12/23 01:27:07;;;;;;;0.30;0.20;;;10.30;59.70;;;;;;6277261;22;20405;-78
2020/12/23 01:29:34;;;;;;;0.80;0.30;;;10.30;60.90;;;;;;6284860;22;20009;-78
2020/12/23 01:32:01;;;;;;;1.20;0.50;;;10.20;62.10;;;;;;6282673;22;19992;-78
2020/12/23 01:34:28;;;;;;;4.30;0.60;;;10.10;62.10;;;;;;6250393;22;20007;-78
2020/12/23 01:36:55;;;;;;;1.50;0.20;;;10.10;59.40;;;;;;6275769;22;19999;-77
2020/12/23 01:39:22;;;;;;;0.20;0.20;;;10.10;60.70;;;;;;6247785;22;20006;-78
2020/12/23 01:41:56;;;;;;;0.35;0.20;;;10.10;59.50;;;;;;6275985;22;20011;-78
2020/12/23 01:44:24;;;;;;;0.57;0.35;;;10.20;58.20;;;;;;6276980;22;20004;-79
2020/12/23 01:46:51;;;;;;;0.90;0.73;;;10.10;58.10;;;;;;6273743;22;20290;-77
2020/12/23 01:49:19;;;;;;;1.35;0.50;;;10.10;59.20;;;;;;6275398;22;19996;-78
2020/12/23 01:51:46;;;;;;;0.43;0.40;;;10.00;58.30;;;;;;6274766;22;20010;-78
2020/12/23 01:54:14;;;;;;;0.88;0.40;;;9.90;59.00;;;;;;6276265;22;20014;-78
2020/12/23 01:56:44;;;;;;;0.60;0.32;;;9.90;58.50;;;;;;6276612;22;19999;-78
2020/12/23 01:59:11;;;;;;;1.67;0.30;;;9.80;58.20;;;;;;6274315;22;19996;-77
2020/12/23 02:01:49;;;;;;;2.63;0.30;;;9.80;58.30;;;;;;6275670;22;20322;-77
2020/12/23 02:04:16;;;;;;;3.85;0.50;;;9.80;59.10;;;;;;6276623;22;20008;-76
2020/12/23 02:06:43;;;;;;;0.40;0.20;;;9.70;58.40;;;;;;6250603;22;20000;-76
2020/12/23 02:09:11;;;;;;;0.60;0.30;;;9.60;58.50;;;;;;6251279;22;20004;-77
2020/12/23 02:11:38;;;;;;;0.70;0.20;;;9.50;59.20;;;;;;6275676;22;20003;-76
2020/12/23 02:14:05;;;;;;;0.65;0.30;;;9.50;59.40;;;;;;6275184;22;20002;-78
2020/12/23 02:16:32;;;;;;;0.47;0.30;;;9.40;58.80;;;;;;6279532;22;19996;-76
2020/12/23 02:18:59;;;;;;;2.03;0.50;;;9.40;58.40;;;;;;6274137;22;20014;-74
2020/12/23 02:21:27;;;;;;;1.15;0.40;;;9.40;59.90;;;;;;6273959;22;20015;-75
2020/12/23 02:23:55;;;;;;;1.30;0.60;;;9.30;59.40;;;;;;6277331;22;20019;-73
2020/12/23 02:26:21;;;;;;;0.55;0.30;;;9.30;59.80;;;;;;6278248;22;19996;-75
2020/12/23 02:28:50;;;;;;;1.60;0.50;;;9.30;58.60;;;;;;6276825;22;20020;-74
2020/12/23 02:31:17;;;;;;;1.17;0.40;;;9.20;59.50;;;;;;6273706;22;20006;-74
2020/12/23 02:33:44;;;;;;;1.02;0.30;;;9.10;60.20;;;;;;6273469;22;20011;-75
2020/12/23 02:36:11;;;;;;;1.08;0.30;;;9.10;58.90;;;;;;6246498;22;20000;-75
2020/12/23 02:38:38;;;;;;;0.90;0.32;;;9.30;58.30;;;;;;6273415;22;20003;-74
2020/12/23 02:41:05;;;;;;;0.63;0.40;;;9.30;57.40;;;;;;6275522;22;19996;-75
2020/12/23 02:43:32;;;;;;;0.28;0.28;;;9.30;58.30;;;;;;6274101;22;20019;-74
2020/12/23 02:45:58;;;;;;;0.20;0.20;;;9.30;57.40;;;;;;6278264;22;19999;-74
2020/12/23 02:48:25;;;;;;;1.77;0.43;;;9.30;58.50;;;;;;6277636;22;20000;-74
2020/12/23 02:50:52;;;;;;;0.75;0.30;;;9.30;57.60;;;;;;6247410;22;19996;-77
2020/12/23 02:53:19;;;;;;;0.52;0.30;;;9.30;58.70;;;;;;6276223;22;20002;-76
2020/12/23 02:55:46;;;;;;;0.88;0.30;;;9.20;59.30;;;;;;6277156;22;19999;-75
2020/12/23 02:58:13;;;;;;;1.33;0.60;;;9.10;57.70;;;;;;6276952;22;19995;-76
2020/12/23 03:00:40;;;;;;;1.13;0.30;;;9.10;59.20;;;;;;6275826;22;20401;-80
2020/12/23 03:03:07;;;;;;;0.73;0.40;;;9.10;59.10;;;;;;6277364;22;20034;-74
2020/12/23 03:05:34;;;;;;;3.63;0.38;;;9.00;58.90;;;;;;6279484;22;20006;-75
2020/12/23 03:08:01;;;;;;;1.70;0.43;;;9.10;57.90;;;;;;6278255;22;20003;-74
2020/12/23 03:10:28;;;;;;;0.20;0.20;;;9.10;58.80;;;;;;6276946;22;19992;-74
2020/12/23 03:12:55;;;;;;;0.60;0.30;;;9.10;58.50;;;;;;6275534;22;20019;-74
2020/12/23 03:15:22;;;;;;;0.45;0.30;;;9.00;59.70;;;;;;6279120;22;20413;-74
2020/12/23 03:17:48;;;;;;;1.08;0.28;;;9.10;58.70;;;;;;6278201;22;19996;-74
2020/12/23 03:20:16;;;;;;;1.95;0.47;;;9.10;58.20;;;;;;6277176;22;19996;-74
2020/12/23 03:22:43;;;;;;;2.20;0.28;;;9.10;59.10;;;;;;6274463;22;20484;-74
2020/12/23 03:25:10;;;;;;;1.15;0.50;;;9.10;59.00;;;;;;6273970;22;20008;-75
2020/12/23 03:27:38;;;;;;;0.82;0.40;;;9.10;59.80;;;;;;6278447;22;19992;-75
2020/12/23 03:30:05;;;;;;;1.17;0.40;;;9.00;59.40;;;;;;6278099;22;20325;-75
2020/12/23 03:32:33;;;;;;;0.50;0.30;;;9.00;60.30;;;;;;6275096;22;20007;-76
2020/12/23 03:35:00;;;;;;;1.20;0.30;;;9.00;60.10;;;;;;6274702;22;20004;-75
2020/12/23 03:37:27;;;;;;;0.47;0.20;;;8.90;61.10;;;;;;6271812;22;20018;-75
2020/12/23 03:39:54;;;;;;;0.47;0.30;;;8.80;61.00;;;;;;6275835;22;20000;-75
2020/12/23 03:42:20;;;;;;;1.23;0.30;;;8.80;60.70;;;;;;6275072;22;20417;-75
2020/12/23 03:44:47;;;;;;;1.65;0.30;;;8.80;62.20;;;;;;6278414;22;20031;-75
2020/12/23 03:47:16;;;;;;;0.60;0.30;;;8.70;61.50;;;;;;6278436;22;19996;-75
2020/12/23 03:49:43;;;;;;;1.10;0.30;;;8.70;61.90;;;;;;6278097;22;20003;-75
2020/12/23 03:52:10;;;;;;;1.20;0.30;;;8.70;61.80;;;;;;6283226;22;19992;-75
2020/12/23 03:54:37;;;;;;;1.13;0.38;;;8.70;62.20;;;;;;6277142;22;19996;-75
2020/12/23 03:57:04;;;;;;;0.60;0.30;;;8.70;61.40;;;;;;6248148;22;20297;-75
2020/12/23 03:59:31;;;;;;;0.40;0.20;;;8.80;61.20;;;;;;6276552;22;20011;-75
2020/12/23 04:01:57;;;;;;;0.35;0.20;;;8.70;62.00;;;;;;6280224;22;20309;-76
2020/12/23 04:04:24;;;;;;;1.15;0.40;;;8.70;62.00;;;;;;6278099;22;20440;-74
2020/12/23 04:06:51;;;;;;;2.75;0.30;;;8.60;61.40;;;;;;6275065;22;20004;-74
2020/12/23 04:09:18;;;;;;;1.02;0.40;;;8.60;62.20;;;;;;6277266;22;20317;-74
2020/12/23 04:11:45;;;;;;;0.32;0.30;;;8.60;62.10;;;;;;6274526;22;20015;-74
2020/12/23 04:14:13;;;;;;;0.77;0.40;;;8.50;62.40;;;;;;6276035;22;20270;-75
2020/12/23 04:16:40;;;;;;;0.30;0.22;;;8.50;61.80;;;;;;6275849;22;20321;-74
2020/12/23 04:19:07;;;;;;;0.22;0.22;;;8.50;62.30;;;;;;6279408;22;20019;-74
2020/12/23 04:21:34;;;;;;;2.38;0.20;;;8.40;62.10;;;;;;6281172;22;20011;-74
2020/12/23 04:24:00;;;;;;;2.40;0.40;;;8.40;61.80;;;;;;6277265;22;20008;-74
2020/12/23 04:26:27;;;;;;;0.65;0.40;;;8.40;62.50;;;;;;6275750;22;20003;-74
2020/12/23 04:28:54;;;;;;;0.70;0.38;;;8.30;61.90;;;;;;6275771;22;20000;-73
2020/12/23 04:31:21;;;;;;;0.90;0.60;;;8.30;61.90;;;;;;6273946;22;20000;-74
2020/12/23 04:33:48;;;;;;;0.70;0.40;;;8.20;61.90;;;;;;6274319;22;20023;-74
2020/12/23 04:36:16;;;;;;;1.05;0.40;;;8.20;61.10;;;;;;6276813;22;20003;-74
2020/12/23 04:38:42;;;;;;;1.50;0.43;;;8.20;62.50;;;;;;6279804;22;19995;-74
2020/12/23 04:41:10;;;;;;;1.38;0.35;;;8.20;59.20;;;;;;6278070;22;20436;-74
2020/12/23 04:43:38;;;;;;;1.17;0.40;;;8.30;61.00;;;;;;6275627;22;20310;-74
2020/12/23 04:46:07;;;;;;;1.58;0.40;;;8.20;60.40;;;;;;6276886;22;20425;-72
2020/12/23 04:48:37;;;;;;;0.60;0.40;;;8.20;59.70;;;;;;6275926;22;20070;-72
2020/12/23 04:51:04;;;;;;;0.85;0.43;;;8.10;60.10;;;;;;6274180;22;19999;-72
2020/12/23 04:53:31;;;;;;;0.73;0.32;;;8.10;60.70;;;;;;6275219;22;19992;-74
2020/12/23 04:55:58;;;;;;;0.77;0.38;;;8.00;60.70;;;;;;6275520;22;20003;-74
2020/12/23 04:58:27;;;;;;;0.47;0.40;;;8.00;59.40;;;;;;6275667;22;20007;-74
2020/12/23 05:00:53;;;;;;;0.60;0.40;;;8.00;59.80;;;;;;6274222;22;20019;-73
2020/12/23 05:03:20;;;;;;;0.75;0.38;;;8.00;60.00;;;;;;6273999;22;20000;-72
2020/12/23 05:05:47;;;;;;;0.40;0.30;;;7.90;60.10;;;;;;6277270;22;20006;-74
2020/12/23 05:08:14;;;;;;;0.60;0.20;;;7.90;59.40;;;;;;6273646;22;20023;-74
2020/12/23 05:10:42;;;;;;;3.40;0.77;;;7.90;60.30;;;;;;6281071;22;20000;-78
2020/12/23 05:13:12;;;;;;;0.35;0.30;;;7.90;58.60;;;;;;6278734;22;19992;-74
2020/12/23 05:15:40;;;;;;;0.80;0.38;;;8.10;57.00;;;;;;6275341;22;20007;-75
2020/12/23 05:18:09;;;;;;;0.47;0.20;;;8.10;56.70;;;;;;6274692;22;19992;-74
2020/12/23 05:20:37;;;;;;;0.20;0.20;;;8.00;57.00;;;;;;6273442;22;20019;-74
2020/12/23 05:23:04;;;;;;;1.13;0.30;;;8.00;57.00;;;;;;6246833;22;20010;-74
2020/12/23 05:25:32;;;;;;;0.45;0.32;;;8.00;56.80;;;;;;6275392;22;19991;-73
2020/12/23 05:27:59;;;;;;;0.40;0.30;;;8.00;56.30;;;;;;6272984;22;20003;-73
2020/12/23 05:30:26;;;;;;;1.35;0.38;;;8.00;56.70;;;;;;6276929;22;20003;-73
2020/12/23 05:32:53;;;;;;;0.28;0.22;;;8.20;57.50;;;;;;6276493;22;19999;-74
2020/12/23 05:35:21;;;;;;;0.90;0.50;;;8.20;56.00;;;;;;6275796;22;20004;-75
2020/12/23 05:37:48;;;;;;;0.50;0.40;;;8.30;55.10;;;;;;6277733;22;19994;-73
2020/12/23 05:40:15;;;;;;;1.15;0.70;;;8.20;55.90;;;;;;6274001;22;20007;-73
2020/12/23 05:42:43;;;;;;;0.90;0.68;;;8.20;55.50;;;;;;6273331;22;20121;-74
2020/12/23 05:45:10;;;;;;;0.60;0.50;;;8.30;54.30;;;;;;6276192;22;20008;-73
2020/12/23 05:47:37;;;;;;;0.68;0.55;;;8.50;55.00;;;;;;6274054;22;20000;-73
2020/12/23 05:50:09;;;;;;;2.35;0.60;;;8.50;55.50;;;;;;6276258;22;20000;-74
2020/12/23 05:52:36;;;;;;;0.68;0.50;;;8.40;55.10;;;;;;6273502;22;20310;-75
2020/12/23 05:55:14;;;;;;;0.63;0.50;;;8.40;55.80;;;;;;6276280;22;19996;-74
2020/12/23 05:57:42;;;;;;;2.55;0.52;;;8.40;55.40;;;;;;6273413;22;20003;-75
2020/12/23 06:00:09;;;;;;;1.10;0.52;;;8.60;54.70;;;;;;6275540;22;20317;-75
2020/12/23 06:03:14;;;;;;;0.82;0.55;;;8.60;55.50;;;;;;6275017;22;20004;-74
2020/12/23 06:05:44;;;;;;;1.83;0.50;;;8.70;54.10;;;;;;6123138;23;20038;-73
2020/12/23 06:08:11;;;;;;;0.40;0.30;;;8.60;56.00;;;;;;6120975;23;19998;-74
2020/12/23 06:10:41;;;;;;;1.13;0.20;;;8.60;55.60;;;;;;6122221;23;20006;-74
2020/12/23 06:13:35;;;;;;;1.33;0.60;;;8.40;55.60;;;;;;6124858;23;20368;-73
2020/12/23 06:16:04;;;;;;;0.80;0.40;;;8.60;55.60;;;;;;6121757;23;20002;-74
2020/12/23 06:18:36;;;;;;;0.30;0.30;;;8.30;56.00;;;;;;6123862;23;20006;-74
2020/12/23 06:21:10;;;;;;;1.40;0.40;;;8.20;56.60;;;;;;6120098;23;20022;-73
2020/12/23 06:23:36;;;;;;;0.68;0.50;;;8.20;57.20;;;;;;6121477;23;20005;-74
2020/12/23 06:26:14;;;;;;;2.38;0.30;;;8.20;56.20;;;;;;6123471;23;20034;-74
2020/12/23 06:28:49;;;;;;;0.73;0.40;;;8.20;56.30;;;;;;6122384;23;20002;-74
2020/12/23 06:31:17;;;;;;;0.60;0.40;;;8.30;56.60;;;;;;6124873;23;20013;-74
2020/12/23 06:33:44;;;;;;;0.70;0.43;;;8.20;56.70;;;;;;6126311;23;20009;-74
2020/12/23 06:36:11;;;;;;;0.77;0.30;;;8.20;56.90;;;;;;6130286;23;20002;-76
2020/12/23 06:38:38;;;;;;;0.40;0.32;;;8.30;55.80;;;;;;6128551;23;20005;-74
2020/12/23 06:41:05;;;;;;;0.50;0.30;;;8.20;56.60;;;;;;6185819;22;20000;-73
2020/12/23 06:43:56;;;;;;;1.70;0.45;;;8.20;56.70;;;;;;6276914;22;19999;-74
2020/12/23 06:46:22;;;;;;;0.70;0.30;;;8.20;55.50;;;;;;6124181;23;20013;-73
2020/12/23 06:48:50;;;;;;;1.35;0.40;;;8.20;56.10;;;;;;6125257;23;20002;-74
2020/12/23 06:51:55;;;;;;;1.65;0.40;;;8.20;56.00;;;;;;6128631;23;20138;-73
2020/12/23 06:55:03;;;;;;;0.47;0.30;;;8.20;56.00;;;;;;6038563;23;20377;-74
2020/12/23 06:57:39;;;;;;;1.02;0.40;;;8.20;56.20;;;;;;5951407;24;20018;-73
2020/12/23 07:00:12;;;;;;;0.80;0.50;;;8.20;55.50;;;;;;5951260;24;20081;-74
2020/12/23 07:02:48;;;;;;;0.40;0.30;;;8.30;55.30;;;;;;5951065;24;20005;-76
2020/12/23 07:05:37;;;;;;;0.40;0.35;;;8.40;55.80;;;;;;5952085;24;20411;-74
2020/12/23 07:08:12;;;;;;;0.73;0.45;;;8.50;55.00;;;;;;5954949;24;20345;-74
2020/12/23 07:10:50;;;;;;;0.98;0.40;;;8.60;54.60;;;;;;5951781;24;20419;-74
2020/12/23 07:13:21;;;;;;;2.05;0.50;;;8.40;54.80;;;;;;5951847;24;20009;-74
2020/12/23 07:15:51;;;;;;;2.25;0.40;;;8.40;54.80;;;;;;5952158;24;20007;-74
2020/12/23 07:18:29;;;;;;;0.98;0.43;;;8.40;55.80;;;;;;5953545;24;20331;-75
2020/12/23 07:21:00;;;;;;;0.38;0.38;;;8.50;53.50;;;;;;5951552;24;20439;-75
2020/12/23 07:23:32;;;;;;;0.50;0.30;;;8.60;53.10;;;;;;6022849;23;20009;-74
2020/12/23 07:26:08;;;;;;;2.35;0.50;;;8.50;53.30;;;;;;6142873;23;20006;-75
2020/12/23 07:28:42;;;;;;;1.38;0.40;;;8.40;53.70;;;;;;6130039;23;20005;-74
2020/12/23 07:31:10;;;;;;;1.20;0.63;;;8.40;52.80;;;;;;6155294;23;20008;-73
2020/12/23 07:33:38;;;;;;;1.00;0.57;;;8.50;52.60;;;;;;6180124;22;20043;-74
2020/12/23 07:36:54;;;;;;;0.40;0.30;;;8.60;52.70;;;;;;6276802;22;19995;-73
2020/12/23 07:39:21;;;;;;;0.95;0.38;;;8.50;53.70;;;;;;6233532;22;20417;-74
2020/12/23 07:41:55;;;;;;;0.88;0.40;;;8.40;53.10;;;;;;6273968;22;20425;-75
2020/12/23 07:44:23;;;;;;;0.70;0.30;;;8.30;53.60;;;;;;6276940;22;20413;-75
2020/12/23 07:46:50;;;;;;;1.05;0.30;;;8.40;52.60;;;;;;6279942;22;20023;-75
2020/12/23 07:49:27;;;;;;;1.48;0.50;;;8.30;53.50;;;;;;6278246;22;20000;-76
2020/12/23 07:51:55;;;;;;;2.17;0.38;;;8.30;53.80;;;;;;6275115;22;20004;-74
2020/12/23 07:54:22;;;;;;;2.30;0.40;;;8.30;54.00;;;;;;6279781;22;19995;-76
2020/12/23 07:56:49;;;;;;;0.65;0.30;;;8.20;54.10;;;;;;6278007;22;20004;-76
2020/12/23 07:59:25;;;;;;;0.60;0.35;;;8.10;54.60;;;;;;6274964;22;20011;-75
2020/12/23 08:01:52;;;;;;;0.68;0.30;;;8.10;53.60;;;;;;6281011;22;20000;-77
2020/12/23 08:04:19;;;;;;;0.75;0.40;;;8.10;54.40;;;;;;6276682;22;20018;-76
2020/12/23 08:06:46;;;;;;;0.30;0.30;;;8.10;54.60;;;;;;6279737;22;19996;-74
2020/12/23 08:09:16;;;;;;;0.60;0.40;;;8.00;55.00;;;;;;6278203;22;20007;-73
2020/12/23 08:11:43;;;;;;;0.60;0.40;;;7.90;56.00;;;;;;6211215;23;20008;-76
2020/12/23 08:14:10;;;;;;;0.30;0.30;;;7.80;55.80;;;;;;6212157;23;20009;-74
2020/12/23 08:16:37;;;;;;;1.58;0.40;;;7.80;56.50;;;;;;6211497;23;20001;-74
2020/12/23 08:19:04;;;;;;;0.43;0.35;;;7.70;56.50;;;;;;6213015;23;20001;-74
2020/12/23 08:21:30;;;;;;;0.95;0.40;;;7.70;55.70;;;;;;6215369;23;20016;-74
2020/12/23 08:23:57;;;;;;;0.75;0.40;;;7.80;55.60;;;;;;6213293;23;20001;-73
2020/12/23 08:26:26;;;;;;;0.50;0.38;;;7.90;55.20;;;;;;6210993;23;20005;-75
2020/12/23 08:28:52;;;;;;;1.17;0.40;;;8.00;54.60;;;;;;6213498;23;19997;-74
2020/12/23 08:31:25;;;;;;;0.52;0.32;;;8.00;54.80;;;;;;6213176;23;20027;-72
2020/12/23 08:34:00;;;;;;;0.47;0.38;;;8.00;55.50;;;;;;6212109;23;20001;-75
2020/12/23 08:36:30;;;;;;;0.40;0.30;;;8.00;54.00;;;;;;6209718;23;19996;-74
2020/12/23 08:38:57;;;;;;;0.50;0.45;;;8.00;56.10;;;;;;6210841;23;20012;-74
2020/12/23 08:41:26;;;;;;;0.63;0.38;;;8.00;56.00;;;;;;6212145;23;20001;-74
2020/12/23 08:43:54;;;;;;;1.17;0.38;;;8.00;55.10;;;;;;6272088;22;20401;-74
2020/12/23 08:46:30;;;;;;;0.65;0.40;;;8.00;55.30;;;;;;6275258;22;20003;-74
2020/12/23 08:48:59;;;;;;;2.85;0.93;;;7.90;56.30;;;;;;6276945;22;19992;-75
2020/12/23 08:51:26;;;;;;;0.98;0.50;;;8.00;54.50;;;;;;6276536;22;20007;-75
2020/12/23 08:53:54;;;;;;;1.35;0.43;;;8.30;54.20;;;;;;6275459;22;20471;-74
2020/12/23 08:56:29;;;;;;;0.63;0.40;;;8.50;53.70;;;;;;6247374;22;20420;-74
2020/12/23 08:59:04;;;;;;;0.60;0.30;;;8.60;53.80;;;;;;6276938;22;19991;-74
2020/12/23 09:01:32;;;;;;;1.27;0.60;;;8.40;54.30;;;;;;6277552;22;20010;-74
2020/12/23 09:04:05;;;;;;;1.05;0.47;;;8.30;54.10;;;;;;6279187;22;20004;-73
2020/12/23 09:06:33;;;;;;;0.50;0.30;;;8.30;54.80;;;;;;6277418;22;19992;-73
2020/12/23 09:09:17;;;;;;;1.02;0.40;;;8.50;53.80;;;;;;6275971;22;20007;-73
2020/12/23 09:11:49;;;;;;;1.25;0.50;;;8.40;54.80;;;;;;6280072;22;19992;-74
2020/12/23 09:14:39;;;;;;;0.68;0.40;;;8.30;54.10;;;;;;6277083;22;19996;-73
2020/12/23 09:17:13;;;;;;;1.83;0.35;;;8.40;53.40;;;;;;6273210;22;20000;-74
2020/12/23 09:20:03;;;;;;;0.60;0.47;;;8.50;53.70;;;;;;6273552;22;20003;-73
2020/12/23 09:22:49;;;;;;;0.65;0.30;;;8.60;52.90;;;;;;6275156;22;20023;-74
2020/12/23 09:25:20;;;;;;;1.08;0.40;;;8.50;53.40;;;;;;6277520;22;20299;-73
2020/12/23 09:27:49;;;;;;;0.88;0.40;;;8.60;52.10;;;;;;6281477;22;19991;-75
2020/12/23 09:30:36;;;;;;;1.92;0.45;;;8.80;51.20;;;;;;6277237;22;19995;-75
2020/12/23 09:33:04;;;;;;;0.85;0.47;;;8.90;51.20;;;;;;6247277;22;20021;-74
2020/12/23 09:35:31;;;;;;;0.65;0.43;;;9.00;50.80;;;;;;6273710;22;20302;-73
2020/12/23 09:38:09;;;;;;;0.70;0.40;;;9.00;50.80;;;;;;6276543;22;20004;-73
2020/12/23 09:40:39;;;;;;;1.90;0.50;;;9.10;50.50;;;;;;6273673;22;20435;-74
2020/12/23 09:43:12;;;;;;;0.70;0.40;;;9.00;50.00;;;;;;6277354;22;19996;-74
2020/12/23 09:45:39;;;;;;;0.77;0.30;;;9.00;50.50;;;;;;6278428;22;20008;-75
2020/12/23 09:48:06;;;;;;;0.70;0.32;;;9.00;50.40;;;;;;6247705;22;19995;-74
2020/12/23 09:50:34;;;;;;;1.52;0.57;;;8.90;50.10;;;;;;6274632;22;20073;-74
2020/12/23 09:53:01;;;;;;;0.65;0.30;;;8.80;50.30;;;;;;6276152;22;20002;-74
2020/12/23 09:55:28;;;;;;;1.95;0.50;;;8.80;50.50;;;;;;6273647;22;20436;-73
2020/12/23 09:57:57;;;;;;;0.95;0.40;;;8.80;50.20;;;;;;6275746;22;20000;-72
2020/12/23 10:00:24;;;;;;;1.13;0.52;;;8.70;50.40;;;;;;6275526;22;20019;-73
2020/12/23 10:02:52;;;;;;;0.82;0.40;;;8.70;50.40;;;;;;6277413;22;19995;-74
2020/12/23 10:05:18;;;;;;;1.33;0.40;;;8.60;49.80;;;;;;6279124;22;20015;-74
2020/12/23 10:07:45;;;;;;;0.82;0.32;;;8.70;49.40;;;;;;6277828;22;19991;-73
2020/12/23 10:10:13;;;;;;;0.77;0.38;;;8.70;49.10;;;;;;6277697;22;19995;-73
2020/12/23 10:12:40;;;;;;;6.03;0.73;;;8.60;49.30;;;;;;6277500;22;19992;-73
2020/12/23 10:15:07;;;;;;;0.95;0.30;;;8.60;49.50;;;;;;6277128;22;19996;-73
2020/12/23 10:17:35;;;;;;;0.60;0.30;;;8.50;50.10;;;;;;6278920;22;20413;-73
2020/12/23 10:20:04;;;;;;;1.13;0.50;;;8.50;49.80;;;;;;6281295;22;20003;-73
2020/12/23 10:22:31;;;;;;;1.17;0.30;;;8.40;49.80;;;;;;6277613;22;20021;-74
2020/12/23 10:24:59;;;;;;;0.50;0.28;;;8.50;49.60;;;;;;6278179;22;20008;-77
2020/12/23 10:27:26;;;;;;;0.93;0.30;;;8.30;49.80;;;;;;6277125;22;20003;-76
2020/12/23 10:29:53;;;;;;;3.42;0.50;;;8.20;50.10;;;;;;6276728;22;20007;-75
2020/12/23 10:32:20;;;;;;;1.17;0.47;;;8.20;50.90;;;;;;6276466;22;19996;-74
2020/12/23 10:34:47;;;;;;;0.57;0.30;;;8.10;50.80;;;;;;6278655;22;20313;-75
2020/12/23 10:37:15;;;;;;;2.28;0.47;;;8.00;51.10;;;;;;6279918;22;19992;-75
2020/12/23 10:39:42;;;;;;;0.22;0.20;;;7.90;51.70;;;;;;6251375;22;20000;-77
2020/12/23 10:42:09;;;;;;;1.73;0.50;;;7.90;51.20;;;;;;6276711;22;20424;-77
2020/12/23 10:44:36;;;;;;;1.23;0.30;;;7.70;51.80;;;;;;6276219;22;20444;-76
2020/12/23 10:47:03;;;;;;;1.35;0.50;;;7.70;51.60;;;;;;6278646;22;19992;-76
2020/12/23 10:49:30;;;;;;;1.17;0.30;;;7.70;51.90;;;;;;6277829;22;20424;-76
2020/12/23 10:51:58;;;;;;;1.05;0.50;;;7.70;51.60;;;;;;6277989;22;20313;-79
2020/12/23 10:54:28;;;;;;;5.57;0.50;;;7.60;52.30;;;;;;6283277;22;20007;-78
2020/12/23 10:56:56;;;;;;;0.88;0.30;;;7.60;52.10;;;;;;6283227;22;20185;-75
2020/12/23 10:59:24;;;;;;;1.27;0.70;;;7.50;52.20;;;;;;6247701;22;20019;-77
2020/12/23 11:01:55;;;;;;;1.17;0.35;;;7.50;52.40;;;;;;6277095;22;19995;-76
2020/12/23 11:04:25;;;;;;;1.67;0.25;;;7.50;52.10;;;;;;6275937;22;20294;-76
2020/12/23 11:06:52;;;;;;;2.00;0.47;;;7.50;52.20;;;;;;6277960;22;20007;-77
2020/12/23 11:09:19;;;;;;;1.08;0.38;;;7.50;52.00;;;;;;6278809;22;19999;-74
2020/12/23 11:11:51;;;;;;;0.77;0.50;;;7.50;52.40;;;;;;6250859;22;20000;-74
2020/12/23 11:14:18;;;;;;;0.25;0.20;;;7.40;52.30;;;;;;6274159;22;20000;-76
2020/12/23 11:16:51;;;;;;;1.60;0.47;;;7.40;52.60;;;;;;6275381;22;20010;-75
2020/12/23 11:19:19;;;;;;;3.00;0.55;;;7.30;52.70;;;;;;6277704;22;20425;-73
2020/12/23 11:21:46;;;;;;;1.25;0.38;;;7.30;52.70;;;;;;6281683;22;20341;-74
2020/12/23 11:24:13;;;;;;;2.10;0.30;;;7.30;52.50;;;;;;6247862;22;20051;-76
2020/12/23 11:26:41;;;;;;;2.63;0.30;;;7.30;52.50;;;;;;6278340;22;20007;-75
2020/12/23 11:29:08;;;;;;;2.35;0.40;;;7.30;52.70;;;;;;6277286;22;20317;-73
2020/12/23 11:31:36;;;;;;;1.35;0.40;;;7.20;53.10;;;;;;6276937;22;19996;-71
2020/12/23 11:34:03;;;;;;;2.10;0.30;;;7.20;52.70;;;;;;6276624;22;19991;-73
2020/12/23 11:36:31;;;;;;;0.30;0.25;;;7.10;53.40;;;;;;6275851;22;20007;-74
2020/12/23 11:38:59;;;;;;;3.20;0.30;;;7.10;53.10;;;;;;6274161;22;20007;-74
2020/12/23 11:41:29;;;;;;;1.52;0.50;;;7.20;53.20;;;;;;6275062;22;20004;-72
2020/12/23 11:43:56;;;;;;;1.90;0.38;;;7.20;53.00;;;;;;6278182;22;19996;-73
2020/12/23 11:46:23;;;;;;;1.10;0.40;;;7.10;53.60;;;;;;6277325;22;20026;-74
2020/12/23 11:48:50;;;;;;;1.23;0.30;;;7.10;53.30;;;;;;6276940;22;19991;-77
2020/12/23 11:51:16;;;;;;;0.60;0.35;;;7.10;52.80;;;;;;6277722;22;19996;-73
2020/12/23 11:53:43;;;;;;;1.88;0.30;;;7.10;53.00;;;;;;6277169;22;20003;-73
2020/12/23 11:56:11;;;;;;;2.17;0.77;;;7.00;53.20;;;;;;6274662;22;20094;-74
2020/12/23 11:58:38;;;;;;;0.93;0.20;;;7.10;53.10;;;;;;6247608;22;20003;-76
2020/12/23 12:01:05;;;;;;;1.25;0.30;;;7.00;53.70;;;;;;6280115;22;19999;-75
2020/12/23 12:03:32;;;;;;;0.47;0.38;;;7.00;53.20;;;;;;6278705;22;19996;-76
2020/12/23 12:05:59;;;;;;;0.80;0.43;;;7.00;53.90;;;;;;6247961;22;20421;-75
2020/12/23 12:08:29;;;;;;;1.10;0.30;;;7.00;53.70;;;;;;6276072;22;20313;-72
2020/12/23 12:10:56;;;;;;;1.60;0.40;;;6.90;53.70;;;;;;6275646;22;20006;-74
2020/12/23 12:13:24;;;;;;;2.00;0.40;;;6.90;53.70;;;;;;6277114;22;19998;-74
2020/12/23 12:15:51;;;;;;;1.67;0.30;;;6.90;53.90;;;;;;6277729;22;19996;-73
2020/12/23 12:18:18;;;;;;;1.35;0.35;;;6.80;54.30;;;;;;6277482;22;19991;-73
2020/12/23 12:20:45;;;;;;;1.25;0.40;;;6.80;53.90;;;;;;6280038;22;20413;-76
2020/12/23 12:23:12;;;;;;;2.13;0.40;;;6.80;54.10;;;;;;6280773;22;19996;-74
2020/12/23 12:25:39;;;;;;;3.78;0.70;;;6.70;54.40;;;;;;6276319;22;20007;-74
2020/12/23 12:28:06;;;;;;;0.30;0.30;;;6.70;54.40;;;;;;6277086;22;19992;-73
2020/12/23 12:30:35;;;;;;;1.10;0.30;;;6.70;54.40;;;;;;6277118;22;20317;-74
2020/12/23 12:33:03;;;;;;;2.08;0.40;;;6.70;54.60;;;;;;6277059;22;19992;-73
2020/12/23 12:35:31;;;;;;;0.65;0.30;;;6.70;54.20;;;;;;6276125;22;20000;-73
2020/12/23 12:37:58;;;;;;;0.55;0.38;;;6.70;54.40;;;;;;6278962;22;20014;-73
2020/12/23 12:40:25;;;;;;;1.10;0.40;;;6.70;54.50;;;;;;6279382;22;20648;-73
2020/12/23 12:42:52;;;;;;;1.58;0.43;;;6.70;54.40;;;;;;6280502;22;20413;-74
2020/12/23 12:45:20;;;;;;;1.25;0.38;;;6.70;54.50;;;;;;6279358;22;20000;-74
2020/12/23 12:47:46;;;;;;;2.28;0.40;;;6.60;54.70;;;;;;6247419;22;19996;-73
2020/12/23 12:50:13;;;;;;;5.30;0.68;;;6.60;55.00;;;;;;6276293;22;19996;-73
2020/12/23 12:52:40;;;;;;;0.80;0.30;;;6.60;54.80;;;;;;6275644;22;20011;-73
2020/12/23 12:55:08;;;;;;;1.35;0.20;;;6.60;55.00;;;;;;6276728;22;20003;-73
2020/12/23 12:57:35;;;;;;;2.65;0.40;;;6.60;55.20;;;;;;6275648;22;20663;-74
2020/12/23 13:00:03;;;;;;;2.85;0.43;;;6.50;55.20;;;;;;6246864;22;20000;-74
2020/12/23 13:02:29;;;;;;;0.90;0.30;;;6.50;55.40;;;;;;6277154;22;19992;-71
2020/12/23 13:04:56;;;;;;;3.13;0.40;;;6.50;55.20;;;;;;6281316;22;20014;-70